sensor_id;sensor_type;location;lat;lon;timestamp;temperature;humidity
31799;DHT22;18374;51.136;3.502;2022-08-21T00:00:23;15.80;99.90
31799;DHT22;18374;51.136;3.502;2022-08-21T00:02:57;15.80;99.90
31799;DHT22;18374;51.136;3.502;2022-08-21T00:05:30;15.60;99.90
31799;DHT22;18374;51.136;3.502;2022-08-21T00:07:59;15.50;99.90
31799;DHT22;18374;51.136;3.502;2022-08-21T00:10:27;15.60;99.90
31799;DHT22;18374;51.136;3.502;2022-08-21T00:12:55;15.60;99.90
31799;DHT22;18374;51.136;3.502;2022-08-21T00:15:29;15.60;99.90
31799;DHT22;18374;51.136;3.502;2022-08-21T00:17:58;15.50;99.90
31799;DHT22;18374;51.136;3.502;2022-08-21T00:20:26;15.50;99.90
31799;DHT22;18374;51.136;3.502;2022-08-21T00:22:54;15.40;99.90
31799;DHT22;18374;51.136;3.502;2022-08-21T00:25:24;15.40;99.90
31799;DHT22;18374;51.136;3.502;2022-08-21T00:27:53;15.30;99.90
31799;DHT22;18374;51.136;3.502;2022-08-21T00:30:23;15.40;99.90
31799;DHT22;18374;51.136;3.502;2022-08-21T00:32:54;15.30;99.90
31799;DHT22;18374;51.136;3.502;2022-08-21T00:35:33;15.30;99.90
31799;DHT22;18374;51.136;3.502;2022-08-21T00:38:05;15.20;99.90
31799;DHT22;18374;51.136;3.502;2022-08-21T00:41:10;15.20;99.90
31799;DHT22;18374;51.136;3.502;2022-08-21T00:43:53;15.20;99.90
31799;DHT22;18374;51.136;3.502;2022-08-21T00:46:21;15.20;99.90
31799;DHT22;18374;51.136;3.502;2022-08-21T00:48:55;15.20;99.90
31799;DHT22;18374;51.136;3.502;2022-08-21T00:51:47;15.20;99.90
31799;DHT22;18374;51.136;3.502;2022-08-21T00:54:22;15.30;99.90
31799;DHT22;18374;51.136;3.502;2022-08-21T00:57:07;15.20;99.90
31799;DHT22;18374;51.136;3.502;2022-08-21T00:59:38;15.20;99.90
31799;DHT22;18374;51.136;3.502;2022-08-21T01:02:08;15.20;99.90
31799;DHT22;18374;51.136;3.502;2022-08-21T01:04:36;15.20;99.90
31799;DHT22;18374;51.136;3.502;2022-08-21T01:07:04;15.10;99.90
31799;DHT22;18374;51.136;3.502;2022-08-21T01:09:32;15.10;99.90
31799;DHT22;18374;51.136;3.502;2022-08-21T01:12:00;15.00;99.90
31799;DHT22;18374;51.136;3.502;2022-08-21T01:14:29;15.00;99.90
31799;DHT22;18374;51.136;3.502;2022-08-21T01:16:58;15.00;99.90
31799;DHT22;18374;51.136;3.502;2022-08-21T01:19:26;15.00;99.90
31799;DHT22;18374;51.136;3.502;2022-08-21T01:21:55;15.00;99.90
31799;DHT22;18374;51.136;3.502;2022-08-21T01:24:22;15.10;99.90
31799;DHT22;18374;51.136;3.502;2022-08-21T01:26:51;15.10;99.90
31799;DHT22;18374;51.136;3.502;2022-08-21T01:29:52;15.10;99.90
31799;DHT22;18374;51.136;3.502;2022-08-21T01:32:24;15.10;99.90
31799;DHT22;18374;51.136;3.502;2022-08-21T01:34:52;15.10;99.90
31799;DHT22;18374;51.136;3.502;2022-08-21T01:37:21;15.00;99.90
31799;DHT22;18374;51.136;3.502;2022-08-21T01:39:49;14.90;99.90
31799;DHT22;18374;51.136;3.502;2022-08-21T01:42:17;14.90;99.90
31799;DHT22;18374;51.136;3.502;2022-08-21T01:44:45;14.90;99.90
31799;DHT22;18374;51.136;3.502;2022-08-21T01:47:14;14.80;99.90
31799;DHT22;18374;51.136;3.502;2022-08-21T01:49:45;14.80;99.90
31799;DHT22;18374;51.136;3.502;2022-08-21T01:52:13;14.80;99.90
31799;DHT22;18374;51.136;3.502;2022-08-21T01:54:42;14.90;99.90
31799;DHT22;18374;51.136;3.502;2022-08-21T01:57:11;14.90;99.90
31799;DHT22;18374;51.136;3.502;2022-08-21T01:59:40;14.80;99.90
31799;DHT22;18374;51.136;3.502;2022-08-21T02:02:08;14.80;99.90
31799;DHT22;18374;51.136;3.502;2022-08-21T02:04:35;14.70;99.90
31799;DHT22;18374;51.136;3.502;2022-08-21T02:07:03;14.70;99.90
31799;DHT22;18374;51.136;3.502;2022-08-21T02:09:34;14.70;99.90
31799;DHT22;18374;51.136;3.502;2022-08-21T02:12:06;14.70;99.90
31799;DHT22;18374;51.136;3.502;2022-08-21T02:14:34;14.70;99.90
31799;DHT22;18374;51.136;3.502;2022-08-21T02:17:03;14.70;99.90
31799;DHT22;18374;51.136;3.502;2022-08-21T02:19:37;14.80;99.90
31799;DHT22;18374;51.136;3.502;2022-08-21T02:22:09;14.80;99.90
31799;DHT22;18374;51.136;3.502;2022-08-21T02:24:38;14.90;99.90
31799;DHT22;18374;51.136;3.502;2022-08-21T02:27:23;14.80;99.90
31799;DHT22;18374;51.136;3.502;2022-08-21T02:29:57;14.90;99.90
31799;DHT22;18374;51.136;3.502;2022-08-21T02:32:25;14.80;99.90
31799;DHT22;18374;51.136;3.502;2022-08-21T02:34:53;14.90;99.90
31799;DHT22;18374;51.136;3.502;2022-08-21T02:37:21;14.90;99.90
31799;DHT22;18374;51.136;3.502;2022-08-21T02:39:48;14.90;99.90
31799;DHT22;18374;51.136;3.502;2022-08-21T02:42:18;14.90;99.90
31799;DHT22;18374;51.136;3.502;2022-08-21T02:44:45;14.80;99.90
31799;DHT22;18374;51.136;3.502;2022-08-21T02:47:14;14.80;99.90
31799;DHT22;18374;51.136;3.502;2022-08-21T02:49:41;14.80;99.90
31799;DHT22;18374;51.136;3.502;2022-08-21T02:52:09;14.80;99.90
31799;DHT22;18374;51.136;3.502;2022-08-21T02:54:39;14.80;99.90
31799;DHT22;18374;51.136;3.502;2022-08-21T02:57:06;14.80;99.90
31799;DHT22;18374;51.136;3.502;2022-08-21T02:59:35;14.80;99.90
31799;DHT22;18374;51.136;3.502;2022-08-21T03:02:03;14.80;99.90
31799;DHT22;18374;51.136;3.502;2022-08-21T03:04:31;14.80;99.90
31799;DHT22;18374;51.136;3.502;2022-08-21T03:06:59;14.80;99.90
31799;DHT22;18374;51.136;3.502;2022-08-21T03:09:27;14.80;99.90
31799;DHT22;18374;51.136;3.502;2022-08-21T03:11:55;14.80;99.90
31799;DHT22;18374;51.136;3.502;2022-08-21T03:14:22;14.80;99.90
31799;DHT22;18374;51.136;3.502;2022-08-21T03:16:50;14.80;99.90
31799;DHT22;18374;51.136;3.502;2022-08-21T03:19:18;14.80;99.90
31799;DHT22;18374;51.136;3.502;2022-08-21T03:21:45;14.70;99.90
31799;DHT22;18374;51.136;3.502;2022-08-21T03:24:13;14.70;99.90
31799;DHT22;18374;51.136;3.502;2022-08-21T03:26:43;14.70;99.90
31799;DHT22;18374;51.136;3.502;2022-08-21T03:29:11;14.70;99.90
31799;DHT22;18374;51.136;3.502;2022-08-21T03:31:39;14.80;99.90
31799;DHT22;18374;51.136;3.502;2022-08-21T03:34:06;14.70;99.90
31799;DHT22;18374;51.136;3.502;2022-08-21T03:36:34;14.70;99.90
31799;DHT22;18374;51.136;3.502;2022-08-21T03:39:03;14.70;99.90
31799;DHT22;18374;51.136;3.502;2022-08-21T03:41:31;14.70;99.90
31799;DHT22;18374;51.136;3.502;2022-08-21T03:43:58;14.70;99.90
31799;DHT22;18374;51.136;3.502;2022-08-21T03:46:26;14.60;99.90
31799;DHT22;18374;51.136;3.502;2022-08-21T03:48:54;14.60;99.90
31799;DHT22;18374;51.136;3.502;2022-08-21T03:51:23;14.50;99.90
31799;DHT22;18374;51.136;3.502;2022-08-21T03:53:51;14.40;99.90
31799;DHT22;18374;51.136;3.502;2022-08-21T03:56:19;14.40;99.90
31799;DHT22;18374;51.136;3.502;2022-08-21T03:58:46;14.40;99.90
31799;DHT22;18374;51.136;3.502;2022-08-21T04:01:14;14.40;99.90
31799;DHT22;18374;51.136;3.502;2022-08-21T04:03:42;14.40;99.90
31799;DHT22;18374;51.136;3.502;2022-08-21T04:06:09;14.40;99.90
31799;DHT22;18374;51.136;3.502;2022-08-21T04:08:37;14.40;99.90
31799;DHT22;18374;51.136;3.502;2022-08-21T04:11:05;14.30;99.90
31799;DHT22;18374;51.136;3.502;2022-08-21T04:13:33;14.40;99.90
31799;DHT22;18374;51.136;3.502;2022-08-21T04:16:11;14.40;99.90
31799;DHT22;18374;51.136;3.502;2022-08-21T04:18:39;14.40;99.90
31799;DHT22;18374;51.136;3.502;2022-08-21T04:21:09;14.40;99.90
31799;DHT22;18374;51.136;3.502;2022-08-21T04:23:39;14.30;99.90
31799;DHT22;18374;51.136;3.502;2022-08-21T04:26:07;14.30;99.90
31799;DHT22;18374;51.136;3.502;2022-08-21T04:28:35;14.30;99.90
31799;DHT22;18374;51.136;3.502;2022-08-21T04:31:03;14.30;99.90
31799;DHT22;18374;51.136;3.502;2022-08-21T04:33:31;14.30;99.90
31799;DHT22;18374;51.136;3.502;2022-08-21T04:35:58;14.30;99.90
31799;DHT22;18374;51.136;3.502;2022-08-21T04:38:26;14.30;99.90
31799;DHT22;18374;51.136;3.502;2022-08-21T04:41:03;14.20;99.90
31799;DHT22;18374;51.136;3.502;2022-08-21T04:43:33;14.20;99.90
31799;DHT22;18374;51.136;3.502;2022-08-21T04:46:00;14.20;99.90
31799;DHT22;18374;51.136;3.502;2022-08-21T04:48:28;14.20;99.90
31799;DHT22;18374;51.136;3.502;2022-08-21T04:53:39;14.30;99.90
31799;DHT22;18374;51.136;3.502;2022-08-21T04:56:14;14.30;99.90
31799;DHT22;18374;51.136;3.502;2022-08-21T04:58:55;14.30;99.90
31799;DHT22;18374;51.136;3.502;2022-08-21T05:01:27;14.30;99.90
31799;DHT22;18374;51.136;3.502;2022-08-21T05:03:59;14.30;99.90
31799;DHT22;18374;51.136;3.502;2022-08-21T05:06:31;14.30;99.90
31799;DHT22;18374;51.136;3.502;2022-08-21T05:09:01;14.30;99.90
31799;DHT22;18374;51.136;3.502;2022-08-21T05:11:32;14.30;99.90
31799;DHT22;18374;51.136;3.502;2022-08-21T05:14:00;14.30;99.90
31799;DHT22;18374;51.136;3.502;2022-08-21T05:16:28;14.30;99.90
31799;DHT22;18374;51.136;3.502;2022-08-21T05:19:08;14.30;99.90
31799;DHT22;18374;51.136;3.502;2022-08-21T05:21:39;14.30;99.90
31799;DHT22;18374;51.136;3.502;2022-08-21T05:24:08;14.30;99.90
31799;DHT22;18374;51.136;3.502;2022-08-21T05:26:36;14.40;99.90
31799;DHT22;18374;51.136;3.502;2022-08-21T05:29:16;14.40;99.90
31799;DHT22;18374;51.136;3.502;2022-08-21T05:31:45;14.40;99.90
31799;DHT22;18374;51.136;3.502;2022-08-21T05:34:18;14.40;99.90
31799;DHT22;18374;51.136;3.502;2022-08-21T05:36:49;14.40;99.90
31799;DHT22;18374;51.136;3.502;2022-08-21T05:39:16;14.40;99.90
31799;DHT22;18374;51.136;3.502;2022-08-21T05:41:44;14.50;99.90
31799;DHT22;18374;51.136;3.502;2022-08-21T05:44:12;14.50;99.90
31799;DHT22;18374;51.136;3.502;2022-08-21T05:46:39;14.60;99.90
31799;DHT22;18374;51.136;3.502;2022-08-21T05:49:08;14.60;99.90
31799;DHT22;18374;51.136;3.502;2022-08-21T05:51:35;14.70;99.90
31799;DHT22;18374;51.136;3.502;2022-08-21T05:54:03;14.70;99.90
31799;DHT22;18374;51.136;3.502;2022-08-21T05:56:31;14.80;99.90
31799;DHT22;18374;51.136;3.502;2022-08-21T05:58:59;14.80;99.90
31799;DHT22;18374;51.136;3.502;2022-08-21T06:01:26;14.90;99.90
31799;DHT22;18374;51.136;3.502;2022-08-21T06:03:58;14.90;99.90
31799;DHT22;18374;51.136;3.502;2022-08-21T06:06:27;15.00;99.90
31799;DHT22;18374;51.136;3.502;2022-08-21T06:08:55;15.00;99.90
31799;DHT22;18374;51.136;3.502;2022-08-21T06:11:22;15.10;99.90
31799;DHT22;18374;51.136;3.502;2022-08-21T06:13:55;15.10;99.90
31799;DHT22;18374;51.136;3.502;2022-08-21T06:16:24;15.20;99.90
31799;DHT22;18374;51.136;3.502;2022-08-21T06:18:52;15.20;99.90
31799;DHT22;18374;51.136;3.502;2022-08-21T06:21:20;15.30;99.90
31799;DHT22;18374;51.136;3.502;2022-08-21T06:23:48;15.40;99.90
31799;DHT22;18374;51.136;3.502;2022-08-21T06:26:15;15.40;99.90
31799;DHT22;18374;51.136;3.502;2022-08-21T06:28:43;15.50;99.90
31799;DHT22;18374;51.136;3.502;2022-08-21T06:31:17;15.60;99.90
31799;DHT22;18374;51.136;3.502;2022-08-21T06:33:47;15.70;99.90
31799;DHT22;18374;51.136;3.502;2022-08-21T06:36:15;15.80;99.90
31799;DHT22;18374;51.136;3.502;2022-08-21T06:38:43;15.80;99.90
31799;DHT22;18374;51.136;3.502;2022-08-21T06:41:19;16.00;99.90
31799;DHT22;18374;51.136;3.502;2022-08-21T06:43:53;16.10;99.90
31799;DHT22;18374;51.136;3.502;2022-08-21T06:46:28;16.10;99.90
31799;DHT22;18374;51.136;3.502;2022-08-21T06:48:58;16.20;99.90
31799;DHT22;18374;51.136;3.502;2022-08-21T06:51:27;16.40;99.90
31799;DHT22;18374;51.136;3.502;2022-08-21T06:53:55;16.50;99.90
31799;DHT22;18374;51.136;3.502;2022-08-21T06:56:25;16.60;99.90
31799;DHT22;18374;51.136;3.502;2022-08-21T06:58:53;16.80;99.90
31799;DHT22;18374;51.136;3.502;2022-08-21T07:01:24;16.90;99.90
31799;DHT22;18374;51.136;3.502;2022-08-21T07:03:53;17.10;99.90
31799;DHT22;18374;51.136;3.502;2022-08-21T07:06:20;17.20;99.90
31799;DHT22;18374;51.136;3.502;2022-08-21T07:08:48;17.30;99.90
31799;DHT22;18374;51.136;3.502;2022-08-21T07:11:21;17.50;99.90
31799;DHT22;18374;51.136;3.502;2022-08-21T07:13:50;17.60;99.90
31799;DHT22;18374;51.136;3.502;2022-08-21T07:16:21;17.70;99.90
31799;DHT22;18374;51.136;3.502;2022-08-21T07:18:49;17.70;99.90
31799;DHT22;18374;51.136;3.502;2022-08-21T07:21:17;17.80;99.90
31799;DHT22;18374;51.136;3.502;2022-08-21T07:23:51;17.80;99.90
31799;DHT22;18374;51.136;3.502;2022-08-21T07:26:21;17.80;99.90
31799;DHT22;18374;51.136;3.502;2022-08-21T07:28:50;17.90;99.90
31799;DHT22;18374;51.136;3.502;2022-08-21T07:31:20;17.90;99.90
31799;DHT22;18374;51.136;3.502;2022-08-21T07:33:50;18.00;99.90
31799;DHT22;18374;51.136;3.502;2022-08-21T07:36:18;18.10;99.90
31799;DHT22;18374;51.136;3.502;2022-08-21T07:38:46;18.20;99.90
31799;DHT22;18374;51.136;3.502;2022-08-21T07:41:20;18.20;99.90
31799;DHT22;18374;51.136;3.502;2022-08-21T07:43:49;18.40;99.90
31799;DHT22;18374;51.136;3.502;2022-08-21T07:46:19;18.50;99.90
31799;DHT22;18374;51.136;3.502;2022-08-21T07:48:47;18.60;99.90
31799;DHT22;18374;51.136;3.502;2022-08-21T07:51:17;18.70;99.90
31799;DHT22;18374;51.136;3.502;2022-08-21T07:53:52;18.90;99.90
31799;DHT22;18374;51.136;3.502;2022-08-21T07:56:22;19.00;99.90
31799;DHT22;18374;51.136;3.502;2022-08-21T07:58:50;19.10;99.90
31799;DHT22;18374;51.136;3.502;2022-08-21T08:01:18;19.10;99.90
31799;DHT22;18374;51.136;3.502;2022-08-21T08:03:46;19.10;99.90
31799;DHT22;18374;51.136;3.502;2022-08-21T08:06:15;19.00;99.90
31799;DHT22;18374;51.136;3.502;2022-08-21T08:08:45;19.20;99.90
31799;DHT22;18374;51.136;3.502;2022-08-21T08:11:13;19.30;99.90
31799;DHT22;18374;51.136;3.502;2022-08-21T08:13:46;19.40;99.90
31799;DHT22;18374;51.136;3.502;2022-08-21T08:16:15;19.50;99.90
31799;DHT22;18374;51.136;3.502;2022-08-21T08:18:44;19.70;99.90
31799;DHT22;18374;51.136;3.502;2022-08-21T08:21:12;19.80;99.90
31799;DHT22;18374;51.136;3.502;2022-08-21T08:23:42;19.80;99.90
31799;DHT22;18374;51.136;3.502;2022-08-21T08:26:12;19.70;99.90
31799;DHT22;18374;51.136;3.502;2022-08-21T08:28:40;19.70;99.90
31799;DHT22;18374;51.136;3.502;2022-08-21T08:31:08;19.80;99.90
31799;DHT22;18374;51.136;3.502;2022-08-21T08:33:36;19.70;99.90
31799;DHT22;18374;51.136;3.502;2022-08-21T08:36:04;19.90;99.90
31799;DHT22;18374;51.136;3.502;2022-08-21T08:38:34;20.10;99.90
31799;DHT22;18374;51.136;3.502;2022-08-21T08:41:15;20.30;99.90
31799;DHT22;18374;51.136;3.502;2022-08-21T08:43:53;20.50;99.90
31799;DHT22;18374;51.136;3.502;2022-08-21T08:46:39;20.80;99.90
31799;DHT22;18374;51.136;3.502;2022-08-21T08:49:24;20.90;99.90
31799;DHT22;18374;51.136;3.502;2022-08-21T08:52:04;20.80;99.90
31799;DHT22;18374;51.136;3.502;2022-08-21T08:54:45;20.60;99.90
31799;DHT22;18374;51.136;3.502;2022-08-21T08:57:20;20.30;99.90
31799;DHT22;18374;51.136;3.502;2022-08-21T08:59:53;20.20;99.90
31799;DHT22;18374;51.136;3.502;2022-08-21T09:02:23;20.10;99.90
31799;DHT22;18374;51.136;3.502;2022-08-21T09:04:54;20.10;99.90
31799;DHT22;18374;51.136;3.502;2022-08-21T09:07:56;20.10;99.90
31799;DHT22;18374;51.136;3.502;2022-08-21T09:11:00;20.20;99.90
31799;DHT22;18374;51.136;3.502;2022-08-21T09:20:21;20.70;99.90
31799;DHT22;18374;51.136;3.502;2022-08-21T09:26:02;21.30;99.90
31799;DHT22;18374;51.136;3.502;2022-08-21T09:28:35;21.70;99.90
31799;DHT22;18374;51.136;3.502;2022-08-21T09:31:22;21.90;99.90
31799;DHT22;18374;51.136;3.502;2022-08-21T09:34:04;22.00;99.90
31799;DHT22;18374;51.136;3.502;2022-08-21T09:39:26;21.80;99.90
31799;DHT22;18374;51.136;3.502;2022-08-21T09:42:03;21.70;99.90
31799;DHT22;18374;51.136;3.502;2022-08-21T09:44:35;21.60;99.90
31799;DHT22;18374;51.136;3.502;2022-08-21T09:47:09;21.70;99.90
31799;DHT22;18374;51.136;3.502;2022-08-21T09:49:42;21.80;99.90
31799;DHT22;18374;51.136;3.502;2022-08-21T09:52:22;21.90;99.90
31799;DHT22;18374;51.136;3.502;2022-08-21T09:54:56;22.10;99.90
31799;DHT22;18374;51.136;3.502;2022-08-21T09:57:30;22.20;99.90
31799;DHT22;18374;51.136;3.502;2022-08-21T10:02:50;22.50;99.90
31799;DHT22;18374;51.136;3.502;2022-08-21T10:05:22;22.50;99.90
31799;DHT22;18374;51.136;3.502;2022-08-21T10:07:52;22.40;99.90
31799;DHT22;18374;51.136;3.502;2022-08-21T10:18:42;22.20;99.90
31799;DHT22;18374;51.136;3.502;2022-08-21T10:21:34;22.20;99.90
31799;DHT22;18374;51.136;3.502;2022-08-21T10:30:04;22.20;99.90
31799;DHT22;18374;51.136;3.502;2022-08-21T10:35:32;22.00;99.90
31799;DHT22;18374;51.136;3.502;2022-08-21T10:41:28;21.90;99.90
31799;DHT22;18374;51.136;3.502;2022-08-21T10:44:24;22.00;99.90
31799;DHT22;18374;51.136;3.502;2022-08-21T10:47:27;22.20;99.90
31799;DHT22;18374;51.136;3.502;2022-08-21T10:50:08;22.20;99.90
31799;DHT22;18374;51.136;3.502;2022-08-21T10:53:11;22.00;99.90
31799;DHT22;18374;51.136;3.502;2022-08-21T10:56:01;21.90;99.90
31799;DHT22;18374;51.136;3.502;2022-08-21T11:01:55;21.90;99.90
31799;DHT22;18374;51.136;3.502;2022-08-21T11:04:53;22.00;99.90
31799;DHT22;18374;51.136;3.502;2022-08-21T11:07:38;21.90;99.90
31799;DHT22;18374;51.136;3.502;2022-08-21T11:10:52;21.90;99.90
31799;DHT22;18374;51.136;3.502;2022-08-21T11:16:41;21.80;99.90
31799;DHT22;18374;51.136;3.502;2022-08-21T11:19:28;21.80;99.90
31799;DHT22;18374;51.136;3.502;2022-08-21T11:22:31;21.90;99.90
31799;DHT22;18374;51.136;3.502;2022-08-21T11:25:11;22.00;99.90
31799;DHT22;18374;51.136;3.502;2022-08-21T11:31:02;22.40;99.90
31799;DHT22;18374;51.136;3.502;2022-08-21T11:43:02;22.30;99.90
31799;DHT22;18374;51.136;3.502;2022-08-21T11:45:55;22.30;99.90
31799;DHT22;18374;51.136;3.502;2022-08-21T11:49:06;22.30;99.90
31799;DHT22;18374;51.136;3.502;2022-08-21T11:52:07;22.50;99.90
31799;DHT22;18374;51.136;3.502;2022-08-21T11:54:55;22.80;99.90
31799;DHT22;18374;51.136;3.502;2022-08-21T11:57:36;22.90;99.90
31799;DHT22;18374;51.136;3.502;2022-08-21T12:05:56;23.40;99.90
31799;DHT22;18374;51.136;3.502;2022-08-21T12:08:31;23.30;99.90
31799;DHT22;18374;51.136;3.502;2022-08-21T12:11:04;23.10;99.90
31799;DHT22;18374;51.136;3.502;2022-08-21T12:13:38;22.90;99.90
31799;DHT22;18374;51.136;3.502;2022-08-21T12:16:32;22.80;99.90
31799;DHT22;18374;51.136;3.502;2022-08-21T12:24:49;22.40;99.90
31799;DHT22;18374;51.136;3.502;2022-08-21T12:29:51;22.20;99.90
31799;DHT22;18374;51.136;3.502;2022-08-21T12:32:30;22.30;99.90
31799;DHT22;18374;51.136;3.502;2022-08-21T12:35:14;22.20;99.90
31799;DHT22;18374;51.136;3.502;2022-08-21T12:38:25;22.30;99.90
31799;DHT22;18374;51.136;3.502;2022-08-21T12:41:06;22.40;99.90
31799;DHT22;18374;51.136;3.502;2022-08-21T12:43:50;22.60;99.90
31799;DHT22;18374;51.136;3.502;2022-08-21T12:46:21;22.80;99.90
31799;DHT22;18374;51.136;3.502;2022-08-21T12:48:55;22.80;99.90
31799;DHT22;18374;51.136;3.502;2022-08-21T12:51:33;22.80;99.90
31799;DHT22;18374;51.136;3.502;2022-08-21T12:54:08;22.70;99.90
31799;DHT22;18374;51.136;3.502;2022-08-21T12:56:36;22.60;99.90
31799;DHT22;18374;51.136;3.502;2022-08-21T12:59:11;22.60;99.90
31799;DHT22;18374;51.136;3.502;2022-08-21T13:01:46;22.60;99.90
31799;DHT22;18374;51.136;3.502;2022-08-21T13:04:19;22.70;99.90
31799;DHT22;18374;51.136;3.502;2022-08-21T13:07:00;22.90;99.90
31799;DHT22;18374;51.136;3.502;2022-08-21T13:09:29;23.10;99.90
31799;DHT22;18374;51.136;3.502;2022-08-21T13:11:58;23.00;99.90
31799;DHT22;18374;51.136;3.502;2022-08-21T13:14:35;23.20;99.90
31799;DHT22;18374;51.136;3.502;2022-08-21T13:17:13;23.20;99.90
31799;DHT22;18374;51.136;3.502;2022-08-21T13:20:21;23.20;99.90
31799;DHT22;18374;51.136;3.502;2022-08-21T13:22:50;23.20;99.90
31799;DHT22;18374;51.136;3.502;2022-08-21T13:25:20;23.10;99.90
31799;DHT22;18374;51.136;3.502;2022-08-21T13:28:00;23.00;99.90
31799;DHT22;18374;51.136;3.502;2022-08-21T13:30:41;22.90;99.90
31799;DHT22;18374;51.136;3.502;2022-08-21T13:33:13;22.90;99.90
31799;DHT22;18374;51.136;3.502;2022-08-21T13:38:20;22.90;99.90
31799;DHT22;18374;51.136;3.502;2022-08-21T13:41:08;22.80;99.90
31799;DHT22;18374;51.136;3.502;2022-08-21T13:43:48;22.80;99.90
31799;DHT22;18374;51.136;3.502;2022-08-21T13:46:27;22.80;99.90
31799;DHT22;18374;51.136;3.502;2022-08-21T13:49:01;22.80;99.90
31799;DHT22;18374;51.136;3.502;2022-08-21T13:51:31;22.70;99.90
31799;DHT22;18374;51.136;3.502;2022-08-21T13:53:59;22.70;99.90
31799;DHT22;18374;51.136;3.502;2022-08-21T13:56:41;22.70;99.90
31799;DHT22;18374;51.136;3.502;2022-08-21T13:59:10;22.70;99.90
31799;DHT22;18374;51.136;3.502;2022-08-21T14:02:00;22.70;99.90
31799;DHT22;18374;51.136;3.502;2022-08-21T14:04:54;22.70;99.90
31799;DHT22;18374;51.136;3.502;2022-08-21T14:07:38;22.80;99.90
31799;DHT22;18374;51.136;3.502;2022-08-21T14:10:18;22.70;99.90
31799;DHT22;18374;51.136;3.502;2022-08-21T14:15:24;22.80;99.90
31799;DHT22;18374;51.136;3.502;2022-08-21T14:18:08;22.80;99.90
31799;DHT22;18374;51.136;3.502;2022-08-21T14:20:44;22.80;99.90
31799;DHT22;18374;51.136;3.502;2022-08-21T14:23:26;22.80;99.90
31799;DHT22;18374;51.136;3.502;2022-08-21T14:25:59;22.80;99.90
31799;DHT22;18374;51.136;3.502;2022-08-21T14:28:31;22.80;99.90
31799;DHT22;18374;51.136;3.502;2022-08-21T14:31:19;22.80;99.90
31799;DHT22;18374;51.136;3.502;2022-08-21T14:33:48;22.80;99.90
31799;DHT22;18374;51.136;3.502;2022-08-21T14:36:16;22.70;99.90
31799;DHT22;18374;51.136;3.502;2022-08-21T14:38:44;22.70;99.90
31799;DHT22;18374;51.136;3.502;2022-08-21T14:41:24;22.70;99.90
31799;DHT22;18374;51.136;3.502;2022-08-21T14:43:55;22.70;99.90
31799;DHT22;18374;51.136;3.502;2022-08-21T14:46:36;22.70;99.90
31799;DHT22;18374;51.136;3.502;2022-08-21T14:49:25;22.70;99.90
31799;DHT22;18374;51.136;3.502;2022-08-21T14:51:58;22.80;99.90
31799;DHT22;18374;51.136;3.502;2022-08-21T14:54:27;22.80;99.90
31799;DHT22;18374;51.136;3.502;2022-08-21T14:57:01;23.00;99.90
31799;DHT22;18374;51.136;3.502;2022-08-21T14:59:35;23.10;99.90
31799;DHT22;18374;51.136;3.502;2022-08-21T15:02:04;23.10;99.90
31799;DHT22;18374;51.136;3.502;2022-08-21T15:04:33;23.20;99.90
31799;DHT22;18374;51.136;3.502;2022-08-21T15:07:01;23.30;99.90
31799;DHT22;18374;51.136;3.502;2022-08-21T15:09:30;23.40;99.90
31799;DHT22;18374;51.136;3.502;2022-08-21T15:12:01;23.40;99.90
31799;DHT22;18374;51.136;3.502;2022-08-21T15:14:33;23.30;99.90
31799;DHT22;18374;51.136;3.502;2022-08-21T15:17:02;23.10;99.90
31799;DHT22;18374;51.136;3.502;2022-08-21T15:19:31;23.10;99.90
31799;DHT22;18374;51.136;3.502;2022-08-21T15:21:59;23.10;99.90
31799;DHT22;18374;51.136;3.502;2022-08-21T15:24:27;23.00;99.90
31799;DHT22;18374;51.136;3.502;2022-08-21T15:26:56;23.10;99.90
31799;DHT22;18374;51.136;3.502;2022-08-21T15:29:27;23.20;99.90
31799;DHT22;18374;51.136;3.502;2022-08-21T15:34:45;23.50;99.90
31799;DHT22;18374;51.136;3.502;2022-08-21T15:37:13;23.60;99.90
31799;DHT22;18374;51.136;3.502;2022-08-21T15:39:41;23.50;99.90
31799;DHT22;18374;51.136;3.502;2022-08-21T15:42:09;23.50;99.90
31799;DHT22;18374;51.136;3.502;2022-08-21T15:44:39;23.40;99.90
31799;DHT22;18374;51.136;3.502;2022-08-21T15:47:29;23.30;99.90
31799;DHT22;18374;51.136;3.502;2022-08-21T15:50:01;23.00;99.90
31799;DHT22;18374;51.136;3.502;2022-08-21T15:52:30;22.90;99.90
31799;DHT22;18374;51.136;3.502;2022-08-21T15:54:58;22.70;99.90
31799;DHT22;18374;51.136;3.502;2022-08-21T15:57:26;22.50;99.90
31799;DHT22;18374;51.136;3.502;2022-08-21T15:59:58;22.40;99.90
31799;DHT22;18374;51.136;3.502;2022-08-21T16:02:39;22.40;99.90
31799;DHT22;18374;51.136;3.502;2022-08-21T16:05:10;22.30;99.90
31799;DHT22;18374;51.136;3.502;2022-08-21T16:07:39;22.30;99.90
31799;DHT22;18374;51.136;3.502;2022-08-21T16:10:08;22.40;99.90
31799;DHT22;18374;51.136;3.502;2022-08-21T16:12:40;22.40;99.90
31799;DHT22;18374;51.136;3.502;2022-08-21T16:15:12;22.30;99.90
31799;DHT22;18374;51.136;3.502;2022-08-21T16:17:48;22.20;99.90
31799;DHT22;18374;51.136;3.502;2022-08-21T16:20:28;22.20;99.90
31799;DHT22;18374;51.136;3.502;2022-08-21T16:22:57;22.20;99.90
31799;DHT22;18374;51.136;3.502;2022-08-21T16:25:26;22.10;99.90
31799;DHT22;18374;51.136;3.502;2022-08-21T16:27:56;22.20;99.90
31799;DHT22;18374;51.136;3.502;2022-08-21T16:30:27;22.20;99.90
31799;DHT22;18374;51.136;3.502;2022-08-21T16:32:55;22.10;99.90
31799;DHT22;18374;51.136;3.502;2022-08-21T16:35:23;22.00;99.90
31799;DHT22;18374;51.136;3.502;2022-08-21T16:37:51;22.00;99.90
31799;DHT22;18374;51.136;3.502;2022-08-21T16:40:20;22.10;99.90
31799;DHT22;18374;51.136;3.502;2022-08-21T16:42:53;22.10;99.90
31799;DHT22;18374;51.136;3.502;2022-08-21T16:45:22;22.00;99.90
31799;DHT22;18374;51.136;3.502;2022-08-21T16:47:50;22.00;99.90
31799;DHT22;18374;51.136;3.502;2022-08-21T16:50:22;22.00;99.90
31799;DHT22;18374;51.136;3.502;2022-08-21T16:52:51;21.90;99.90
31799;DHT22;18374;51.136;3.502;2022-08-21T16:55:19;21.90;99.90
31799;DHT22;18374;51.136;3.502;2022-08-21T16:57:47;21.80;99.90
31799;DHT22;18374;51.136;3.502;2022-08-21T17:00:14;21.80;99.90
31799;DHT22;18374;51.136;3.502;2022-08-21T17:02:46;21.70;99.90
31799;DHT22;18374;51.136;3.502;2022-08-21T17:05:16;21.70;99.90
31799;DHT22;18374;51.136;3.502;2022-08-21T17:07:44;21.70;99.90
31799;DHT22;18374;51.136;3.502;2022-08-21T17:10:14;21.60;99.90
31799;DHT22;18374;51.136;3.502;2022-08-21T17:12:44;21.60;99.90
31799;DHT22;18374;51.136;3.502;2022-08-21T17:15:21;21.70;99.90
31799;DHT22;18374;51.136;3.502;2022-08-21T17:17:51;21.60;99.90
31799;DHT22;18374;51.136;3.502;2022-08-21T17:20:20;21.50;99.90
31799;DHT22;18374;51.136;3.502;2022-08-21T17:22:47;21.40;99.90
31799;DHT22;18374;51.136;3.502;2022-08-21T17:25:15;21.50;99.90